British Tenacity — MDTE9 — position and weather

sailwx.info

Track history (hours):
 
Tides and Currents Weather Stations Pressure Air Temp Water Temp Dewpoint Dewpoint Depression Visibility Wind Speed Wind Dir Waves Ship Positions

British Tenacity

Last reported at 2014-Jul-20 18:17 UTC. Time now 2014-Jul-24 17:00 UTC.
Position N 53°23' W 002°60'.

Type: Ship (hazmat cat C). MMSI: 235825000.

Date/timePositionNaut miles runAvg speedWind from/ knotsBaromVisibWave heightAir tempDewpointWater temp
2014-Jul-20 18:17N 53°23' W 002°60'6 3.5
2014-Jul-20 16:33N 53°28' W 003°04'9 8.8
2014-Jul-20 15:33N 53°31' W 003°18'9 9.1
2014-Jul-20 14:34N 53°31' W 003°33'210 4.8
2014-Jul-18 18:33N 50°14' W 001°35'1616.4
2014-Jul-18 17:34N 50°18' W 001°10'1615.4
2014-Jul-18 16:31N 50°22' W 000°46'1513.7
2014-Jul-18 15:24N 50°26' W 000°22'1112.7
2014-Jul-18 14:33N 50°28' W 000°06'1211.8
2014-Jul-18 13:34N 50°31' E 000°12'4 7.4
2014-Jul-18 13:00N 50°30' E 000°18'818.8 260 / 61014.8 2.2 19.516.218.0
2014-Jul-18 12:33N 50°35' E 000°29'1212.2
2014-Jul-18 11:33N 50°41' E 000°45'1414.2
2014-Jul-18 10:33N 50°50' E 001°02'1515.2
2014-Jul-18 09:33N 51°01' E 001°20'1414.3
2014-Jul-18 08:33N 51°09' E 001°38'1312.7
2014-Jul-18 07:34N 51°19' E 001°51'1010.1
2014-Jul-18 06:32N 51°24' E 002°06'1111.7
2014-Jul-18 05:34N 51°22' E 002°24'1211.5
2014-Jul-18 04:33N 51°24' E 002°42'1110.7
2014-Jul-18 03:33N 51°25' E 002°59'1111.1
2014-Jul-18 02:34N 51°25' E 003°17'1111.3
2014-Jul-18 01:33N 51°26' E 003°35'7 7.5
2014-Jul-18 00:33N 51°22' E 003°45'1110.8
2014-Jul-17 23:33N 51°26' E 004°01'9 9.5
2014-Jul-17 22:34N 51°21' E 004°14'2 1.8
2014-Jul-17 21:34N 51°21' E 004°17'1 0.7
2014-Jul-17 20:34N 51°20' E 004°18'1 1.1
2014-Jul-17 19:29N 51°19' E 004°18'  
2014-Jul-15 05:28N 51°19' E 004°18'1 0.6
2014-Jul-15 04:34N 51°20' E 004°18'1 1.4
2014-Jul-15 03:34N 51°21' E 004°17'1 0.7
2014-Jul-15 02:33N 51°21' E 004°16'6 5.7
2014-Jul-15 01:34N 51°22' E 004°07'8 8.2
2014-Jul-15 00:33N 51°22' E 003°54'1212.1
2014-Jul-14 23:33N 51°26' E 003°36'9 9.2
2014-Jul-14 22:33N 51°24' E 003°21'1110.7
2014-Jul-14 21:31N 51°24' E 003°03'1111.6
2014-Jul-14 20:33N 51°24' E 002°46'5 3.8
2014-Jul-14 19:20N 51°26' E 002°39'0 0.0
2014-Jul-14 18:32N 51°26' E 002°39'0 0.0
2014-Jul-14 17:32N 51°26' E 002°39'0 0.0
2014-Jul-14 16:32N 51°26' E 002°39'0 0.0
2014-Jul-14 15:32N 51°26' E 002°39'0 0.0
2014-Jul-14 13:14N 51°26' E 002°39'0 0.0
2014-Jul-14 12:32N 51°26' E 002°39'0 0.1
2014-Jul-14 11:26N 51°26' E 002°39'0 0.1
2014-Jul-14 10:32N 51°26' E 002°38'0 0.0
2014-Jul-14 09:32N 51°26' E 002°38'0 0.0
2014-Jul-14 08:32N 51°26' E 002°38'0 0.1
2014-Jul-14 07:32N 51°26' E 002°39'0 0.1
2014-Jul-14 06:29N 51°26' E 002°39'0 0.1
2014-Jul-14 05:26N 51°26' E 002°39'0 0.0
2014-Jul-14 04:32N 51°26' E 002°39'0 0.0
2014-Jul-14 03:08N 51°26' E 002°39'0 0.0
2014-Jul-14 02:29N 51°26' E 002°39'0 0.0
2014-Jul-14 01:25N 51°26' E 002°39'0 0.0
2014-Jul-14 00:25N 51°26' E 002°39'0 0.0
2014-Jul-13 23:31N 51°26' E 002°39'0 0.1
2014-Jul-13 22:19N 51°26' E 002°38'0 0.0
2014-Jul-13 21:28N 51°26' E 002°38'0 0.0
2014-Jul-13 20:31N 51°26' E 002°38'0 0.2
2014-Jul-13 19:31N 51°26' E 002°39'0 0.0
2014-Jul-13 17:25N 51°26' E 002°39'0 0.0
2014-Jul-13 16:31N 51°26' E 002°39'0 0.0
2014-Jul-13 15:16N 51°26' E 002°39'0 0.0
2014-Jul-13 14:31N 51°26' E 002°39'0 0.0
2014-Jul-13 13:31N 51°26' E 002°39'0 0.0
2014-Jul-13 12:31N 51°26' E 002°39'4 4.6
2014-Jul-13 11:33N 51°23' E 002°34'1212.0
2014-Jul-13 10:33N 51°19' E 002°16'1211.2
2014-Jul-13 09:31N 51°23' E 001°59'1211.9
2014-Jul-13 08:34N 51°33' E 002°09'1313.1
2014-Jul-13 07:34N 51°42' E 002°23'1411.9
2014-Jul-13 06:25N 51°54' E 002°35'2010.7
2014-Jul-13 04:33N 52°14' E 002°40'10 9.6
2014-Jul-13 03:33N 52°23' E 002°45'9 8.8
2014-Jul-13 02:33N 52°30' E 002°54'10 9.5
2014-Jul-13 01:27N 52°39' E 003°03'1310.5
2014-Jul-13 00:11N 52°51' E 003°12'811.3
2014-Jul-12 23:30N 52°58' E 003°17'1111.8
2014-Jul-12 22:33N 53°09' E 003°22'1610.3
2014-Jul-12 21:00N 53°24' E 003°30'919.7 1011.8 5.4 17.516.716.0
2014-Jul-12 20:34N 53°32' E 003°35'1211.6
2014-Jul-12 19:34N 53°43' E 003°41'1110.9
2014-Jul-12 18:34N 53°50' E 003°55'1110.9
2014-Jul-12 17:34N 53°56' E 004°10'1110.8
2014-Jul-12 16:34N 54°02' E 004°25'1110.8
2014-Jul-12 15:33N 54°04' E 004°43'1211.7
2014-Jul-12 14:33N 54°05' E 005°03'1212.1
2014-Jul-12 13:33N 54°07' E 005°24'4 6.7
2014-Jul-12 13:00N 54°06' E 005°30'919.7 090 / 21013.610.8 19.015.618.0
2014-Jul-12 12:33N 54°08' E 005°44'1211.8
2014-Jul-12 11:33N 54°10' E 006°04'1111.3
2014-Jul-12 10:33N 54°12' E 006°23'1110.8
2014-Jul-12 09:33N 54°12' E 006°42'1110.3
2014-Jul-12 08:32N 54°12' E 006°60'1010.3
2014-Jul-12 07:33N 54°12' E 007°17'7 6.7
2014-Jul-12 06:33N 54°07' E 007°25'0 0.1
2014-Jul-12 05:31N 54°07' E 007°25'0 0.1
2014-Jul-12 04:31N 54°07' E 007°25'0 0.0
2014-Jul-12 03:33N 54°07' E 007°25'0 0.0
2014-Jul-12 02:30N 54°07' E 007°25'0 0.0
2014-Jul-12 01:33N 54°07' E 007°25'0 0.0
2014-Jul-12 00:33N 54°07' E 007°25'0 0.2
2014-Jul-11 23:30N 54°07' E 007°25'0 0.0
2014-Jul-11 22:30N 54°07' E 007°25'0 0.0
2014-Jul-11 21:30N 54°07' E 007°25'0 0.0
2014-Jul-11 20:27N 54°07' E 007°25'0 0.0
2014-Jul-11 19:30N 54°07' E 007°25'0 0.0
2014-Jul-11 18:33N 54°07' E 007°25'0 0.0
2014-Jul-11 17:33N 54°07' E 007°25'0 0.2
2014-Jul-11 16:33N 54°07' E 007°25'0 0.0
2014-Jul-11 15:24N 54°07' E 007°25'0 0.0
2014-Jul-11 14:33N 54°07' E 007°25'0 0.0
2014-Jul-11 13:30N 54°07' E 007°25'0 0.0
2014-Jul-11 12:27N 54°07' E 007°25'0 0.0
2014-Jul-11 11:30N 54°07' E 007°25'0 0.1
2014-Jul-11 10:33N 54°07' E 007°25'0 0.0
2014-Jul-11 09:33N 54°07' E 007°25'0 0.1
2014-Jul-11 08:33N 54°07' E 007°25'0 0.0
2014-Jul-11 07:33N 54°07' E 007°25'0 0.0
2014-Jul-11 06:33N 54°07' E 007°25'0 0.1
2014-Jul-11 05:33N 54°07' E 007°25'0 0.0
2014-Jul-11 04:27N 54°07' E 007°25'0 0.1
2014-Jul-11 03:33N 54°07' E 007°25'0 0.0
2014-Jul-11 02:33N 54°07' E 007°25'0 0.0
2014-Jul-11 01:33N 54°07' E 007°25'0 0.0
2014-Jul-11 00:33N 54°07' E 007°25'0 0.0
2014-Jul-10 23:33N 54°07' E 007°25'0 0.1
2014-Jul-10 22:21N 54°07' E 007°25'0 0.2
2014-Jul-10 21:27N 54°07' E 007°25'0 0.1
2014-Jul-10 20:26N 54°07' E 007°25'0 0.1
2014-Jul-10 19:32N 54°07' E 007°25'  
Track history (hours):
 
Tides and Currents Weather Stations Pressure Air Temp Water Temp Dewpoint Dewpoint Depression Visibility Wind Speed Wind Dir Waves Ship Positions

British Tenacity

Last reported at 2014-Jul-20 18:17 UTC. Time now 2014-Jul-24 17:00 UTC.
Position N 53°23' W 002°60'.

Type: Ship (hazmat cat C). MMSI: 235825000.

Date/timePositionNaut miles runAvg speedWind from/ knotsBaromVisibWave heightAir tempDewpointWater temp
2014-Jul-20 18:17N 53°23' W 002°60'6 3.5
2014-Jul-20 16:33N 53°28' W 003°04'9 8.8
2014-Jul-20 15:33N 53°31' W 003°18'9 9.1
2014-Jul-20 14:34N 53°31' W 003°33'210 4.8
2014-Jul-18 18:33N 50°14' W 001°35'1616.4
2014-Jul-18 17:34N 50°18' W 001°10'1615.4
2014-Jul-18 16:31N 50°22' W 000°46'1513.7
2014-Jul-18 15:24N 50°26' W 000°22'1112.7
2014-Jul-18 14:33N 50°28' W 000°06'1211.8
2014-Jul-18 13:34N 50°31' E 000°12'4 7.4
2014-Jul-18 13:00N 50°30' E 000°18'818.8 260 / 61014.8 2.2 19.516.218.0
2014-Jul-18 12:33N 50°35' E 000°29'1212.2
2014-Jul-18 11:33N 50°41' E 000°45'1414.2
2014-Jul-18 10:33N 50°50' E 001°02'1515.2
2014-Jul-18 09:33N 51°01' E 001°20'1414.3
2014-Jul-18 08:33N 51°09' E 001°38'1312.7
2014-Jul-18 07:34N 51°19' E 001°51'1010.1
2014-Jul-18 06:32N 51°24' E 002°06'1111.7
2014-Jul-18 05:34N 51°22' E 002°24'1211.5
2014-Jul-18 04:33N 51°24' E 002°42'1110.7
2014-Jul-18 03:33N 51°25' E 002°59'1111.1
2014-Jul-18 02:34N 51°25' E 003°17'1111.3
2014-Jul-18 01:33N 51°26' E 003°35'7 7.5
2014-Jul-18 00:33N 51°22' E 003°45'1110.8
2014-Jul-17 23:33N 51°26' E 004°01'9 9.5
2014-Jul-17 22:34N 51°21' E 004°14'2 1.8
2014-Jul-17 21:34N 51°21' E 004°17'1 0.7
2014-Jul-17 20:34N 51°20' E 004°18'1 1.1
2014-Jul-17 19:29N 51°19' E 004°18'  
2014-Jul-15 05:28N 51°19' E 004°18'1 0.6
2014-Jul-15 04:34N 51°20' E 004°18'1 1.4
2014-Jul-15 03:34N 51°21' E 004°17'1 0.7
2014-Jul-15 02:33N 51°21' E 004°16'6 5.7
2014-Jul-15 01:34N 51°22' E 004°07'8 8.2
2014-Jul-15 00:33N 51°22' E 003°54'1212.1
2014-Jul-14 23:33N 51°26' E 003°36'9 9.2
2014-Jul-14 22:33N 51°24' E 003°21'1110.7
2014-Jul-14 21:31N 51°24' E 003°03'1111.6
2014-Jul-14 20:33N 51°24' E 002°46'5 3.8
2014-Jul-14 19:20N 51°26' E 002°39'0 0.0
2014-Jul-14 18:32N 51°26' E 002°39'0 0.0
2014-Jul-14 17:32N 51°26' E 002°39'0 0.0
2014-Jul-14 16:32N 51°26' E 002°39'0 0.0
2014-Jul-14 15:32N 51°26' E 002°39'0 0.0
2014-Jul-14 13:14N 51°26' E 002°39'0 0.0
2014-Jul-14 12:32N 51°26' E 002°39'0 0.1
2014-Jul-14 11:26N 51°26' E 002°39'0 0.1
2014-Jul-14 10:32N 51°26' E 002°38'0 0.0
2014-Jul-14 09:32N 51°26' E 002°38'0 0.0
2014-Jul-14 08:32N 51°26' E 002°38'0 0.1
2014-Jul-14 07:32N 51°26' E 002°39'0 0.1
2014-Jul-14 06:29N 51°26' E 002°39'0 0.1
2014-Jul-14 05:26N 51°26' E 002°39'0 0.0
2014-Jul-14 04:32N 51°26' E 002°39'0 0.0
2014-Jul-14 03:08N 51°26' E 002°39'0 0.0
2014-Jul-14 02:29N 51°26' E 002°39'0 0.0
2014-Jul-14 01:25N 51°26' E 002°39'0 0.0
2014-Jul-14 00:25N 51°26' E 002°39'0 0.0
2014-Jul-13 23:31N 51°26' E 002°39'0 0.1
2014-Jul-13 22:19N 51°26' E 002°38'0 0.0
2014-Jul-13 21:28N 51°26' E 002°38'0 0.0
2014-Jul-13 20:31N 51°26' E 002°38'0 0.2
2014-Jul-13 19:31N 51°26' E 002°39'0 0.0
2014-Jul-13 17:25N 51°26' E 002°39'0 0.0
2014-Jul-13 16:31N 51°26' E 002°39'0 0.0
2014-Jul-13 15:16N 51°26' E 002°39'0 0.0
2014-Jul-13 14:31N 51°26' E 002°39'0 0.0
2014-Jul-13 13:31N 51°26' E 002°39'0 0.0
2014-Jul-13 12:31N 51°26' E 002°39'4 4.6
2014-Jul-13 11:33N 51°23' E 002°34'1212.0
2014-Jul-13 10:33N 51°19' E 002°16'1211.2
2014-Jul-13 09:31N 51°23' E 001°59'1211.9
2014-Jul-13 08:34N 51°33' E 002°09'1313.1
2014-Jul-13 07:34N 51°42' E 002°23'1411.9
2014-Jul-13 06:25N 51°54' E 002°35'2010.7
2014-Jul-13 04:33N 52°14' E 002°40'10 9.6
2014-Jul-13 03:33N 52°23' E 002°45'9 8.8
2014-Jul-13 02:33N 52°30' E 002°54'10 9.5
2014-Jul-13 01:27N 52°39' E 003°03'1310.5
2014-Jul-13 00:11N 52°51' E 003°12'811.3
2014-Jul-12 23:30N 52°58' E 003°17'1111.8
2014-Jul-12 22:33N 53°09' E 003°22'1610.3
2014-Jul-12 21:00N 53°24' E 003°30'919.7 1011.8 5.4 17.516.716.0
2014-Jul-12 20:34N 53°32' E 003°35'1211.6
2014-Jul-12 19:34N 53°43' E 003°41'1110.9
2014-Jul-12 18:34N 53°50' E 003°55'1110.9
2014-Jul-12 17:34N 53°56' E 004°10'1110.8
2014-Jul-12 16:34N 54°02' E 004°25'1110.8
2014-Jul-12 15:33N 54°04' E 004°43'1211.7
2014-Jul-12 14:33N 54°05' E 005°03'1212.1
2014-Jul-12 13:33N 54°07' E 005°24'4 6.7
2014-Jul-12 13:00N 54°06' E 005°30'919.7 090 / 21013.610.8 19.015.618.0
2014-Jul-12 12:33N 54°08' E 005°44'1211.8
2014-Jul-12 11:33N 54°10' E 006°04'1111.3
2014-Jul-12 10:33N 54°12' E 006°23'1110.8
2014-Jul-12 09:33N 54°12' E 006°42'1110.3
2014-Jul-12 08:32N 54°12' E 006°60'1010.3
2014-Jul-12 07:33N 54°12' E 007°17'7 6.7
2014-Jul-12 06:33N 54°07' E 007°25'0 0.1
2014-Jul-12 05:31N 54°07' E 007°25'0 0.1
2014-Jul-12 04:31N 54°07' E 007°25'0 0.0
2014-Jul-12 03:33N 54°07' E 007°25'0 0.0
2014-Jul-12 02:30N 54°07' E 007°25'0 0.0
2014-Jul-12 01:33N 54°07' E 007°25'0 0.0
2014-Jul-12 00:33N 54°07' E 007°25'0 0.2
2014-Jul-11 23:30N 54°07' E 007°25'0 0.0
2014-Jul-11 22:30N 54°07' E 007°25'0 0.0
2014-Jul-11 21:30N 54°07' E 007°25'0 0.0
2014-Jul-11 20:27N 54°07' E 007°25'0 0.0
2014-Jul-11 19:30N 54°07' E 007°25'0 0.0
2014-Jul-11 18:33N 54°07' E 007°25'0 0.0
2014-Jul-11 17:33N 54°07' E 007°25'0 0.2
2014-Jul-11 16:33N 54°07' E 007°25'0 0.0
2014-Jul-11 15:24N 54°07' E 007°25'0 0.0
2014-Jul-11 14:33N 54°07' E 007°25'0 0.0
2014-Jul-11 13:30N 54°07' E 007°25'0 0.0
2014-Jul-11 12:27N 54°07' E 007°25'0 0.0
2014-Jul-11 11:30N 54°07' E 007°25'0 0.1
2014-Jul-11 10:33N 54°07' E 007°25'0 0.0
2014-Jul-11 09:33N 54°07' E 007°25'0 0.1
2014-Jul-11 08:33N 54°07' E 007°25'0 0.0
2014-Jul-11 07:33N 54°07' E 007°25'0 0.0
2014-Jul-11 06:33N 54°07' E 007°25'0 0.1
2014-Jul-11 05:33N 54°07' E 007°25'0 0.0
2014-Jul-11 04:27N 54°07' E 007°25'0 0.1
2014-Jul-11 03:33N 54°07' E 007°25'0 0.0
2014-Jul-11 02:33N 54°07' E 007°25'0 0.0
2014-Jul-11 01:33N 54°07' E 007°25'0 0.0
2014-Jul-11 00:33N 54°07' E 007°25'0 0.0
2014-Jul-10 23:33N 54°07' E 007°25'0 0.1
2014-Jul-10 22:21N 54°07' E 007°25'0 0.2
2014-Jul-10 21:27N 54°07' E 007°25'0 0.1
2014-Jul-10 20:26N 54°07' E 007°25'0 0.1
2014-Jul-10 19:32N 54°07' E 007°25'  

Dump ship's entire track history